createdAt,value
2023-01-25T00:00:49.646Z,15.37
2023-01-25T00:03:16.390Z,15.80
2023-01-25T00:05:43.195Z,15.83
2023-01-25T00:08:09.885Z,17.90
2023-01-25T00:10:36.576Z,14.87
2023-01-25T00:13:03.218Z,15.77
2023-01-25T00:15:30.675Z,16.23
2023-01-25T00:17:57.318Z,16.00
2023-01-25T00:20:24.018Z,15.40
2023-01-25T00:22:50.629Z,14.83
2023-01-25T00:25:17.334Z,15.03
2023-01-25T00:27:43.896Z,13.80
2023-01-25T00:30:10.954Z,15.00
2023-01-25T00:32:53.277Z,17.47
2023-01-25T00:35:20.933Z,14.00
2023-01-25T00:37:49.920Z,16.83
2023-01-25T00:40:16.947Z,14.83
2023-01-25T00:42:43.681Z,15.47
2023-01-25T00:45:12.331Z,14.50
2023-01-25T00:47:39.151Z,16.20
2023-01-25T00:50:09.452Z,15.97
2023-01-25T00:52:36.459Z,14.83
2023-01-25T00:55:03.420Z,15.77
2023-01-25T00:57:30.289Z,16.50
2023-01-25T00:59:57.068Z,16.37
2023-01-25T01:02:23.719Z,15.20
2023-01-25T01:04:50.439Z,15.30
2023-01-25T01:07:17.046Z,16.33
2023-01-25T01:09:43.700Z,17.97
2023-01-25T01:12:10.271Z,15.87
2023-01-25T01:14:37.223Z,14.60
2023-01-25T01:17:03.933Z,15.70
2023-01-25T01:19:30.892Z,17.47
2023-01-25T01:21:57.581Z,18.00
2023-01-25T01:24:24.387Z,16.47
2023-01-25T01:26:51.059Z,17.40
2023-01-25T01:29:17.775Z,16.67
2023-01-25T01:31:44.462Z,15.93
2023-01-25T01:34:14.559Z,18.20
2023-01-25T01:36:41.613Z,15.60
2023-01-25T01:39:09.122Z,17.00
2023-01-25T01:41:36.234Z,16.63
2023-01-25T01:44:03.819Z,18.10
2023-01-25T01:46:39.487Z,18.93
2023-01-25T01:49:29.439Z,17.83
2023-01-25T01:52:03.170Z,18.50
2023-01-25T01:54:52.657Z,20.23
2023-01-25T01:57:26.877Z,20.57
2023-01-25T02:00:19.797Z,19.10
2023-01-25T02:02:49.162Z,18.93
2023-01-25T02:05:43.144Z,18.37
2023-01-25T02:08:13.304Z,21.27
2023-01-25T02:10:40.861Z,20.37
2023-01-25T02:13:07.489Z,22.23
2023-01-25T02:15:41.847Z,23.73
2023-01-25T02:18:10.350Z,23.13
2023-01-25T02:20:43.262Z,22.30
2023-01-25T02:23:35.076Z,21.10
2023-01-25T02:26:05.721Z,22.47
2023-01-25T02:28:44.200Z,23.37
2023-01-25T02:31:10.915Z,24.83
2023-01-25T02:33:37.492Z,22.67
2023-01-25T02:36:07.150Z,25.97
2023-01-25T02:38:55.514Z,23.83
2023-01-25T02:41:30.072Z,24.77
2023-01-25T02:43:56.704Z,22.70
2023-01-25T02:46:31.744Z,27.17
2023-01-25T02:49:00.874Z,23.27
2023-01-25T02:51:29.387Z,23.43
2023-01-25T02:53:57.125Z,23.30
2023-01-25T02:56:24.821Z,23.77
2023-01-25T02:58:51.621Z,25.30
2023-01-25T03:01:28.184Z,25.47
2023-01-25T03:03:55.028Z,24.60
2023-01-25T03:06:21.591Z,25.70
2023-01-25T03:08:48.184Z,25.83
2023-01-25T03:11:14.811Z,25.50
2023-01-25T03:13:41.564Z,25.97
2023-01-25T03:16:10.533Z,27.67
2023-01-25T03:18:37.884Z,28.53
2023-01-25T03:21:13.316Z,26.90
2023-01-25T03:23:40.920Z,27.23
2023-01-25T03:26:10.322Z,27.93
2023-01-25T03:28:38.523Z,22.33
2023-01-25T03:31:08.332Z,23.57
2023-01-25T03:33:34.921Z,24.10
2023-01-25T03:36:02.037Z,26.27
2023-01-25T03:38:29.344Z,28.27
2023-01-25T03:40:55.989Z,24.43
2023-01-25T03:43:22.958Z,23.53
2023-01-25T03:45:53.879Z,24.87
2023-01-25T03:48:21.539Z,25.00
2023-01-25T03:50:53.037Z,25.80
2023-01-25T03:53:27.474Z,27.47
2023-01-25T03:55:59.070Z,23.40
2023-01-25T03:58:26.536Z,22.90
2023-01-25T04:00:55.968Z,26.93
2023-01-25T04:03:23.334Z,27.23
2023-01-25T04:05:50.625Z,27.33
2023-01-25T04:08:17.311Z,27.67
2023-01-25T04:10:44.330Z,26.07
2023-01-25T04:13:11.329Z,26.53
2023-01-25T04:15:37.948Z,25.83
2023-01-25T04:18:04.497Z,26.47
2023-01-25T04:20:31.101Z,26.87
2023-01-25T04:22:57.810Z,28.07
2023-01-25T04:25:24.846Z,27.67
2023-01-25T04:27:51.658Z,28.20
2023-01-25T04:30:18.419Z,27.90
2023-01-25T04:32:45.563Z,29.23
2023-01-25T04:35:12.523Z,28.37
2023-01-25T04:37:39.156Z,27.90
2023-01-25T04:40:06.531Z,26.47
2023-01-25T04:42:33.378Z,25.67
2023-01-25T04:45:00.056Z,26.53
2023-01-25T04:47:26.635Z,26.70
2023-01-25T04:49:53.206Z,26.90
2023-01-25T04:52:19.950Z,29.27
2023-01-25T04:54:48.568Z,30.83
2023-01-25T04:57:15.111Z,29.80
2023-01-25T04:59:41.681Z,29.50
2023-01-25T05:02:08.341Z,32.07
2023-01-25T05:04:34.987Z,31.73
2023-01-25T05:07:01.661Z,30.70
2023-01-25T05:09:28.754Z,30.83
2023-01-25T05:11:55.481Z,30.57
2023-01-25T05:14:22.044Z,31.10
2023-01-25T05:16:48.838Z,33.07
2023-01-25T05:19:15.617Z,35.93
2023-01-25T05:22:00.527Z,34.53
2023-01-25T05:24:31.850Z,35.30
2023-01-25T05:27:03.611Z,38.43
2023-01-25T05:29:42.528Z,35.33
2023-01-25T05:32:12.449Z,33.17
2023-01-25T05:34:39.471Z,42.07
2023-01-25T05:37:08.193Z,36.40
2023-01-25T05:39:34.797Z,32.57
2023-01-25T05:42:01.956Z,35.73
2023-01-25T05:44:29.247Z,32.27
2023-01-25T05:46:56.555Z,35.50
2023-01-25T05:49:23.129Z,34.23
2023-01-25T05:51:49.798Z,32.23
2023-01-25T05:54:17.953Z,37.37
2023-01-25T05:56:44.619Z,36.07
2023-01-25T05:59:14.143Z,31.20
2023-01-25T06:01:40.881Z,32.97
2023-01-25T06:04:17.233Z,31.80
2023-01-25T06:06:43.877Z,34.10
2023-01-25T06:09:12.077Z,33.90
2023-01-25T06:11:38.802Z,32.50
2023-01-25T06:14:05.455Z,32.70
2023-01-25T06:16:39.482Z,33.10
2023-01-25T06:19:10.548Z,34.27
2023-01-25T06:21:37.232Z,31.57
2023-01-25T06:24:05.187Z,34.17
2023-01-25T06:26:32.046Z,34.43
2023-01-25T06:28:58.671Z,33.10
2023-01-25T06:31:25.618Z,37.10
2023-01-25T06:33:52.837Z,34.63
2023-01-25T06:36:21.780Z,38.87
2023-01-25T06:38:54.704Z,35.57
2023-01-25T06:41:22.954Z,39.53
2023-01-25T06:46:34.221Z,41.87
2023-01-25T06:49:01.093Z,39.57
2023-01-25T06:51:27.851Z,41.47
2023-01-25T06:54:01.835Z,42.23
2023-01-25T06:56:43.345Z,44.23
2023-01-25T06:59:10.767Z,42.30
2023-01-25T07:01:38.159Z,45.10
2023-01-25T07:04:05.313Z,40.23
2023-01-25T07:06:35.029Z,37.30
2023-01-25T07:09:04.815Z,37.80
2023-01-25T07:11:37.773Z,38.33
2023-01-25T07:14:05.197Z,42.83
2023-01-25T07:16:36.691Z,41.77
2023-01-25T07:19:05.623Z,43.10
2023-01-25T07:21:33.052Z,41.60
2023-01-25T07:24:02.463Z,44.20
2023-01-25T07:26:29.661Z,44.70
2023-01-25T07:28:57.650Z,43.03
2023-01-25T07:31:24.874Z,41.17
2023-01-25T07:33:55.111Z,49.17
2023-01-25T07:36:22.502Z,53.77
2023-01-25T07:38:52.378Z,41.93
2023-01-25T07:41:19.102Z,47.37
2023-01-25T07:43:45.803Z,44.87
2023-01-25T07:46:13.913Z,47.10
2023-01-25T07:48:45.072Z,46.50
2023-01-25T07:51:11.845Z,41.83
2023-01-25T07:53:43.064Z,39.93
2023-01-25T07:56:11.966Z,41.33
2023-01-25T07:58:39.596Z,43.73
2023-01-25T08:01:14.988Z,41.00
2023-01-25T08:03:42.139Z,43.23
2023-01-25T08:06:10.188Z,40.97
2023-01-25T08:08:41.417Z,40.43
2023-01-25T08:11:14.116Z,47.23
2023-01-25T08:13:41.722Z,43.80
2023-01-25T08:16:08.819Z,46.83
2023-01-25T08:18:36.709Z,43.87
2023-01-25T08:21:03.617Z,42.53
2023-01-25T08:23:30.825Z,44.70
2023-01-25T08:26:04.535Z,43.17
2023-01-25T08:28:31.242Z,49.30
2023-01-25T08:31:16.567Z,42.53
2023-01-25T08:33:45.983Z,42.23
2023-01-25T08:36:14.270Z,47.77
2023-01-25T08:38:41.635Z,47.33
2023-01-25T08:41:10.600Z,43.80
2023-01-25T08:43:37.991Z,54.57
2023-01-25T08:46:05.739Z,49.30
2023-01-25T08:48:32.588Z,50.03
2023-01-25T08:51:00.314Z,40.47
2023-01-25T08:53:31.893Z,47.83
2023-01-25T08:56:13.588Z,43.73
2023-01-25T08:58:43.584Z,44.17
2023-01-25T09:01:12.693Z,45.13
2023-01-25T09:03:42.506Z,49.23
2023-01-25T09:06:10.872Z,51.47
2023-01-25T09:08:40.719Z,38.13
2023-01-25T09:11:12.980Z,49.50
2023-01-25T09:13:43.561Z,48.70
2023-01-25T09:16:13.755Z,49.30
2023-01-25T09:18:42.584Z,48.30
2023-01-25T09:21:11.623Z,49.47
2023-01-25T09:23:50.642Z,50.43
2023-01-25T09:26:18.746Z,50.17
2023-01-25T09:28:50.582Z,49.37
2023-01-25T09:31:22.051Z,47.70
2023-01-25T09:33:51.655Z,51.97
2023-01-25T09:36:19.041Z,53.27
2023-01-25T09:38:45.943Z,63.20
2023-01-25T09:41:42.354Z,59.73
2023-01-25T09:44:20.955Z,49.97
2023-01-25T09:46:50.131Z,62.17
2023-01-25T09:50:00.875Z,58.77
2023-01-25T09:52:27.470Z,53.90
2023-01-25T09:54:54.512Z,51.67
2023-01-25T09:57:35.087Z,55.47
2023-01-25T10:00:08.423Z,54.50
2023-01-25T10:02:57.668Z,57.27
2023-01-25T10:05:28.461Z,57.77
2023-01-25T10:07:55.153Z,56.67
2023-01-25T10:10:29.516Z,58.37
2023-01-25T10:12:56.292Z,54.17
2023-01-25T10:15:28.038Z,53.30
2023-01-25T10:18:05.769Z,62.87
2023-01-25T10:20:36.139Z,56.70
2023-01-25T10:23:14.870Z,55.70
2023-01-25T10:25:49.801Z,59.27
2023-01-25T10:28:48.744Z,50.90
2023-01-25T10:31:21.734Z,54.53
2023-01-25T10:33:49.430Z,51.90
2023-01-25T10:36:20.464Z,51.87
2023-01-25T10:38:57.461Z,56.53
2023-01-25T10:41:43.007Z,58.13
2023-01-25T10:44:29.127Z,58.70
2023-01-25T10:47:21.234Z,51.27
2023-01-25T10:49:49.292Z,56.00
2023-01-25T10:52:29.364Z,53.57
2023-01-25T10:55:23.626Z,52.87
2023-01-25T10:57:53.854Z,49.77
2023-01-25T11:00:40.665Z,55.50
2023-01-25T11:03:20.364Z,50.40
2023-01-25T11:05:55.203Z,50.47
2023-01-25T11:08:32.276Z,44.73
2023-01-25T11:11:00.005Z,51.30
2023-01-25T11:13:33.442Z,51.10
2023-01-25T11:16:01.426Z,56.13
2023-01-25T11:18:34.924Z,59.87
2023-01-25T11:21:18.654Z,60.00
2023-01-25T11:24:11.492Z,58.07
2023-01-25T11:29:25.380Z,53.93
2023-01-25T11:31:54.776Z,57.77
2023-01-25T11:34:26.664Z,59.80
2023-01-25T11:37:18.276Z,59.80
2023-01-25T11:39:44.988Z,56.87
2023-01-25T11:42:23.572Z,55.67
2023-01-25T11:44:57.036Z,48.57
2023-01-25T11:47:41.793Z,49.00
2023-01-25T11:50:17.727Z,51.53
2023-01-25T11:52:56.498Z,48.23
2023-01-25T11:55:29.316Z,49.53
2023-01-25T11:58:05.209Z,48.83
2023-01-25T12:00:59.715Z,45.17
2023-01-25T12:03:44.794Z,49.87
2023-01-25T12:06:39.539Z,53.67
2023-01-25T12:09:28.847Z,49.33
2023-01-25T12:12:20.160Z,49.60
2023-01-25T12:17:46.782Z,46.00
2023-01-25T12:20:34.197Z,55.30
2023-01-25T12:23:17.260Z,43.70
2023-01-25T12:26:12.767Z,47.07
2023-01-25T12:28:49.067Z,42.20
2023-01-25T12:31:20.198Z,54.83
2023-01-25T12:33:59.834Z,49.67
2023-01-25T12:36:34.568Z,50.43
2023-01-25T12:39:09.578Z,91.20
2023-01-25T12:41:54.502Z,54.63
2023-01-25T12:44:50.146Z,50.10
2023-01-25T12:47:40.900Z,47.57
2023-01-25T12:50:19.287Z,50.73
2023-01-25T12:53:02.839Z,45.57
2023-01-25T12:55:32.007Z,46.97
2023-01-25T12:58:02.892Z,48.20
2023-01-25T13:00:48.669Z,50.83
2023-01-25T13:03:30.084Z,50.70
2023-01-25T13:06:14.510Z,49.73
2023-01-25T13:08:54.317Z,51.33
2023-01-25T13:11:25.734Z,48.03
2023-01-25T13:13:52.583Z,54.33
2023-01-25T13:16:24.296Z,52.37
2023-01-25T13:18:51.090Z,50.97
2023-01-25T13:21:37.009Z,48.70
2023-01-25T13:24:26.465Z,50.33
2023-01-25T13:26:53.057Z,49.77
2023-01-25T13:29:32.257Z,50.37
2023-01-25T13:32:00.810Z,49.10
2023-01-25T13:34:36.594Z,48.37
2023-01-25T13:37:17.777Z,48.00
2023-01-25T13:40:23.341Z,46.27
2023-01-25T13:43:02.369Z,45.40
2023-01-25T13:45:30.179Z,45.57
2023-01-25T13:48:05.954Z,45.60
2023-01-25T13:50:40.081Z,48.07
2023-01-25T13:53:20.044Z,44.10
2023-01-25T14:09:27.500Z,42.37
2023-01-25T14:12:05.723Z,44.60
2023-01-25T14:19:04.715Z,40.80
2023-01-25T14:25:54.502Z,47.23
2023-01-25T14:39:24.942Z,55.87
2023-01-25T14:42:00.818Z,50.87
2023-01-25T14:44:29.704Z,51.73
2023-01-25T14:47:31.481Z,63.03
2023-01-25T14:50:36.319Z,56.43
2023-01-25T14:53:24.855Z,58.17
2023-01-25T14:55:51.898Z,52.90
2023-01-25T14:58:23.892Z,54.03
2023-01-25T15:00:55.894Z,58.57
2023-01-25T15:03:23.083Z,51.67
2023-01-25T15:05:49.875Z,57.87
2023-01-25T15:08:27.930Z,53.00
2023-01-25T15:11:18.934Z,55.07
2023-01-25T15:13:45.875Z,53.33
2023-01-25T15:16:13.111Z,60.27
2023-01-25T15:18:53.437Z,60.20
2023-01-25T15:21:30.506Z,57.13
2023-01-25T15:24:06.999Z,60.50
2023-01-25T15:26:35.920Z,57.63
2023-01-25T15:29:16.564Z,60.40
2023-01-25T15:31:43.821Z,53.70
2023-01-25T15:34:17.332Z,57.60
2023-01-25T15:36:44.342Z,68.30
2023-01-25T15:39:17.006Z,67.87
2023-01-25T15:41:44.360Z,64.90
2023-01-25T15:44:11.684Z,66.43
2023-01-25T15:46:41.988Z,62.00
2023-01-25T15:49:13.730Z,63.33
2023-01-25T15:51:40.570Z,58.70
2023-01-25T15:54:07.396Z,61.37
2023-01-25T15:56:37.091Z,62.03
2023-01-25T15:59:09.223Z,55.73
2023-01-25T16:01:35.934Z,59.23
2023-01-25T16:04:02.666Z,59.90
2023-01-25T16:06:37.039Z,59.53
2023-01-25T16:09:21.955Z,66.20
2023-01-25T16:11:52.675Z,60.57
2023-01-25T16:14:19.454Z,52.70
2023-01-25T16:16:49.417Z,60.13
2023-01-25T16:19:20.739Z,54.87
2023-01-25T16:21:47.713Z,67.38
2023-01-25T16:24:14.596Z,61.07
2023-01-25T16:27:00.763Z,63.07
2023-01-25T16:29:28.737Z,64.57
2023-01-25T16:31:55.604Z,58.80
2023-01-25T16:34:22.447Z,58.70
2023-01-25T16:36:52.869Z,60.33
2023-01-25T16:39:22.128Z,54.93
2023-01-25T16:41:49.841Z,59.77
2023-01-25T16:44:17.478Z,53.50
2023-01-25T16:46:44.974Z,53.17
2023-01-25T16:49:19.788Z,50.40
2023-01-25T16:51:49.412Z,48.33
2023-01-25T16:54:16.999Z,48.27
2023-01-25T16:56:44.065Z,47.40
2023-01-25T16:59:11.463Z,49.27
2023-01-25T17:01:41.789Z,46.47
2023-01-25T17:04:09.533Z,48.93
2023-01-25T17:06:39.638Z,48.93
2023-01-25T17:09:21.505Z,47.27
2023-01-25T17:11:49.845Z,48.77
2023-01-25T17:14:19.369Z,55.00
2023-01-25T17:16:48.491Z,65.30
2023-01-25T17:19:17.079Z,48.17
2023-01-25T17:21:44.665Z,50.40
2023-01-25T17:24:14.823Z,51.10
2023-01-25T17:26:42.010Z,45.53
2023-01-25T17:29:10.384Z,84.23
2023-01-25T17:31:37.578Z,62.03
2023-01-25T17:34:06.752Z,51.13
2023-01-25T17:36:34.011Z,53.07
2023-01-25T17:39:06.118Z,49.90
2023-01-25T17:41:33.116Z,52.57
2023-01-25T17:44:37.969Z,54.40
2023-01-25T17:47:01.248Z,52.80
2023-01-25T17:49:29.351Z,54.20
2023-01-25T17:51:56.014Z,54.30
2023-01-25T17:54:22.745Z,55.13
2023-01-25T17:56:49.532Z,59.73
2023-01-25T17:59:16.101Z,60.83
2023-01-25T18:01:43.620Z,53.93
2023-01-25T18:04:10.559Z,68.17
2023-01-25T18:06:37.442Z,55.30
2023-01-25T18:09:06.310Z,62.17
2023-01-25T18:11:35.800Z,62.80
2023-01-25T18:14:08.227Z,50.50
2023-01-25T18:16:37.395Z,52.43
2023-01-25T18:19:05.241Z,49.63
2023-01-25T18:21:33.321Z,50.80
2023-01-25T18:24:04.752Z,48.43
2023-01-25T18:27:09.590Z,49.93
2023-01-25T18:29:47.099Z,52.37
2023-01-25T18:32:15.715Z,47.23
2023-01-25T18:34:53.444Z,52.90
2023-01-25T18:37:21.074Z,50.03
2023-01-25T18:39:49.299Z,50.73
2023-01-25T18:42:16.059Z,79.37
2023-01-25T18:44:45.364Z,54.60
2023-01-25T18:47:13.928Z,52.60
2023-01-25T18:49:41.460Z,52.63
2023-01-25T18:52:11.760Z,54.93
2023-01-25T18:54:38.906Z,55.97
2023-01-25T18:57:06.748Z,58.90
2023-01-25T18:59:33.357Z,58.00
2023-01-25T19:02:00.005Z,54.30
2023-01-25T19:04:27.466Z,62.30
2023-01-25T19:06:57.415Z,63.27
2023-01-25T19:09:25.236Z,53.07
2023-01-25T19:11:52.080Z,54.83
2023-01-25T19:14:18.987Z,58.27
2023-01-25T19:16:45.873Z,61.77
2023-01-25T19:19:12.783Z,61.77
2023-01-25T19:21:40.285Z,100.40
2023-01-25T19:24:11.989Z,98.30
2023-01-25T19:26:39.559Z,66.77
2023-01-25T19:29:07.098Z,59.70
2023-01-25T19:31:34.453Z,102.37
2023-01-25T19:34:04.407Z,85.57
2023-01-25T19:36:33.900Z,68.43
2023-01-25T19:39:02.608Z,63.60
2023-01-25T19:41:30.875Z,74.77
2023-01-25T19:44:01.706Z,61.83
2023-01-25T19:46:31.075Z,55.13
2023-01-25T19:48:59.059Z,57.53
2023-01-25T19:51:33.550Z,60.43
2023-01-25T19:54:06.439Z,58.33
2023-01-25T19:56:39.537Z,60.80
2023-01-25T19:59:12.321Z,60.07
2023-01-25T20:01:43.601Z,59.83
2023-01-25T20:04:12.583Z,64.30
2023-01-25T20:06:39.889Z,63.00
2023-01-25T20:09:07.941Z,63.33
2023-01-25T20:11:36.264Z,63.27
2023-01-25T20:14:05.416Z,59.20
2023-01-25T20:16:33.732Z,59.60
2023-01-25T20:19:01.192Z,62.83
2023-01-25T20:21:29.536Z,67.97
2023-01-25T20:24:00.271Z,64.27
2023-01-25T20:26:30.361Z,62.73
2023-01-25T20:28:58.750Z,60.00
2023-01-25T20:31:38.209Z,62.17
2023-01-25T20:34:09.249Z,76.20
2023-01-25T20:36:36.747Z,73.07
2023-01-25T20:39:06.135Z,67.43
2023-01-25T20:41:33.115Z,69.30
2023-01-25T20:44:02.039Z,71.07
2023-01-25T20:46:37.147Z,70.97
2023-01-25T20:49:05.838Z,75.47
2023-01-25T20:51:33.658Z,92.33
2023-01-25T20:54:00.387Z,107.37
2023-01-25T20:56:27.522Z,92.33
2023-01-25T20:58:54.943Z,90.77
2023-01-25T21:01:24.107Z,79.07
2023-01-25T21:03:51.155Z,84.40
2023-01-25T21:06:18.244Z,75.13
2023-01-25T21:08:45.283Z,71.03
2023-01-25T21:11:13.428Z,71.73
2023-01-25T21:13:40.218Z,70.90
2023-01-25T21:16:13.024Z,70.60
2023-01-25T21:18:45.695Z,79.17
2023-01-25T21:21:18.213Z,100.33
2023-01-25T21:23:47.489Z,78.33
2023-01-25T21:26:22.805Z,72.67
2023-01-25T21:28:50.548Z,74.27
2023-01-25T21:31:19.700Z,68.33
2023-01-25T21:33:47.099Z,69.27
2023-01-25T21:36:17.000Z,73.23
2023-01-25T21:41:29.292Z,69.37
2023-01-25T21:44:17.186Z,67.27
2023-01-25T21:46:51.314Z,68.30
2023-01-25T21:49:41.417Z,75.43
2023-01-25T21:52:10.881Z,74.00
2023-01-25T21:54:38.426Z,74.87
2023-01-25T21:57:08.862Z,73.67
2023-01-25T21:59:40.658Z,78.07
2023-01-25T22:02:15.315Z,72.60
2023-01-25T22:04:41.911Z,73.50
2023-01-25T22:07:09.299Z,78.43
2023-01-25T22:09:36.542Z,71.70
2023-01-25T22:12:03.307Z,79.40
2023-01-25T22:14:29.910Z,83.97
2023-01-25T22:16:56.562Z,77.10
2023-01-25T22:19:23.431Z,78.70
2023-01-25T22:21:50.204Z,81.47
2023-01-25T22:24:17.068Z,80.27
2023-01-25T22:26:53.565Z,77.47
2023-01-25T22:29:20.342Z,78.00
2023-01-25T22:31:47.198Z,87.93
2023-01-25T22:34:13.791Z,84.83
2023-01-25T22:36:40.434Z,81.57
2023-01-25T22:39:07.145Z,86.10
2023-01-25T22:41:37.149Z,84.00
2023-01-25T22:44:04.028Z,77.63
2023-01-25T22:46:30.793Z,76.23
2023-01-25T22:48:58.620Z,86.43
2023-01-25T22:51:27.710Z,84.10
2023-01-25T22:53:55.344Z,76.90
2023-01-25T22:56:24.674Z,83.00
2023-01-25T22:58:51.722Z,88.80
2023-01-25T23:01:30.539Z,83.80
2023-01-25T23:03:57.853Z,80.87
2023-01-25T23:06:27.120Z,90.10
2023-01-25T23:08:59.813Z,89.67
2023-01-25T23:11:32.285Z,81.60
2023-01-25T23:14:17.958Z,82.67
2023-01-25T23:16:44.585Z,88.00
2023-01-25T23:19:11.199Z,94.63
2023-01-25T23:21:37.954Z,91.13
2023-01-25T23:24:04.876Z,96.53
2023-01-25T23:26:37.564Z,85.83
2023-01-25T23:29:07.143Z,88.97
2023-01-25T23:31:34.044Z,94.73
2023-01-25T23:34:02.749Z,95.13
2023-01-25T23:36:32.519Z,88.77
2023-01-25T23:38:59.812Z,93.70
2023-01-25T23:41:28.549Z,89.23
2023-01-25T23:43:56.010Z,85.37
2023-01-25T23:46:23.928Z,92.73
2023-01-25T23:48:50.973Z,88.93
2023-01-25T23:51:18.495Z,84.53
2023-01-25T23:53:45.476Z,86.60
2023-01-25T23:56:21.359Z,86.67
2023-01-25T23:58:48.738Z,84.47
